createdAt,value
2023-02-19T00:01:28.333Z,3.60
2023-02-19T00:03:57.505Z,3.90
2023-02-19T00:06:26.795Z,4.10
2023-02-19T00:08:53.810Z,3.80
2023-02-19T00:11:22.946Z,3.80
2023-02-19T00:13:52.810Z,5.00
2023-02-19T00:16:22.992Z,4.20
2023-02-19T00:18:50.245Z,4.50
2023-02-19T00:21:17.739Z,3.60
2023-02-19T00:23:48.011Z,3.20
2023-02-19T00:26:18.670Z,8.20
2023-02-19T00:28:46.964Z,15.50
2023-02-19T00:31:22.543Z,4.80
2023-02-19T00:33:51.076Z,10.90
2023-02-19T00:36:17.873Z,4.90
2023-02-19T00:38:44.792Z,2.50
2023-02-19T00:41:12.977Z,3.10
2023-02-19T00:43:39.411Z,2.30
2023-02-19T00:46:05.975Z,3.00
2023-02-19T00:48:32.475Z,2.90
2023-02-19T00:50:58.979Z,2.10
2023-02-19T00:53:25.468Z,2.50
2023-02-19T00:55:51.914Z,3.60
2023-02-19T00:58:18.438Z,3.10
2023-02-19T01:00:44.923Z,3.10
2023-02-19T01:03:11.375Z,4.10
2023-02-19T01:05:37.865Z,3.00
2023-02-19T01:08:04.539Z,2.50
2023-02-19T01:10:31.019Z,3.00
2023-02-19T01:12:57.530Z,3.60
2023-02-19T01:15:24.043Z,3.00
2023-02-19T01:17:50.505Z,3.80
2023-02-19T01:20:17.187Z,2.10
2023-02-19T01:22:43.649Z,2.20
2023-02-19T01:25:10.170Z,2.60
2023-02-19T01:27:36.640Z,3.20
2023-02-19T01:30:03.361Z,2.70
2023-02-19T01:32:29.824Z,2.20
2023-02-19T01:34:56.277Z,2.10
2023-02-19T01:37:22.711Z,3.30
2023-02-19T01:39:49.181Z,3.80
2023-02-19T01:42:17.134Z,5.30
2023-02-19T01:44:43.545Z,4.30
2023-02-19T01:47:09.998Z,5.10
2023-02-19T01:49:43.790Z,4.70
2023-02-19T01:52:21.337Z,4.20
2023-02-19T01:54:48.884Z,4.10
2023-02-19T01:57:21.961Z,5.50
2023-02-19T01:59:54.531Z,4.60
2023-02-19T02:02:22.370Z,4.00
2023-02-19T02:04:48.904Z,5.80
2023-02-19T02:07:16.212Z,5.50
2023-02-19T02:09:42.694Z,4.90
2023-02-19T02:12:09.305Z,3.70
2023-02-19T02:14:38.912Z,4.70
2023-02-19T02:17:25.398Z,3.80
2023-02-19T02:20:07.062Z,3.90
2023-02-19T02:25:46.347Z,5.10
2023-02-19T02:28:31.138Z,6.10
2023-02-19T02:31:10.054Z,4.00
2023-02-19T02:33:44.701Z,4.50
2023-02-19T02:36:27.050Z,4.40
2023-02-19T02:38:55.447Z,3.90
2023-02-19T02:41:22.454Z,3.60
2023-02-19T02:43:49.065Z,4.60
2023-02-19T02:46:22.911Z,4.50
2023-02-19T02:48:57.121Z,4.70
2023-02-19T02:51:31.977Z,3.80
2023-02-19T02:54:04.426Z,2.30
2023-02-19T02:56:31.265Z,3.50
2023-02-19T02:59:02.594Z,3.30
2023-02-19T03:01:35.024Z,2.30
2023-02-19T03:04:06.597Z,2.10
2023-02-19T03:09:16.575Z,3.10
2023-02-19T03:11:48.412Z,2.50
2023-02-19T03:14:30.591Z,2.70
2023-02-19T03:17:03.740Z,3.30
2023-02-19T03:19:35.351Z,1.40
2023-02-19T03:24:35.568Z,2.40
2023-02-19T03:27:05.096Z,3.80
2023-02-19T03:29:34.492Z,2.80
2023-02-19T03:32:06.976Z,2.30
2023-02-19T03:34:41.611Z,2.20
2023-02-19T03:37:25.276Z,3.80
2023-02-19T03:39:53.925Z,1.90
2023-02-19T03:42:44.667Z,2.30
2023-02-19T03:45:30.865Z,4.40
2023-02-19T03:48:21.093Z,3.70
2023-02-19T03:50:58.712Z,2.00
2023-02-19T03:53:51.975Z,2.50
2023-02-19T03:56:52.347Z,3.80
2023-02-19T04:00:03.515Z,2.40
2023-02-19T04:02:35.989Z,1.90
2023-02-19T04:05:14.044Z,2.40
2023-02-19T04:07:45.200Z,2.40
2023-02-19T04:10:14.203Z,4.80
2023-02-19T04:12:46.267Z,2.90
2023-02-19T04:15:18.814Z,2.50
2023-02-19T04:17:59.021Z,1.50
2023-02-19T04:20:29.868Z,2.90
2023-02-19T04:22:57.323Z,2.10
2023-02-19T04:25:26.491Z,2.90
2023-02-19T04:27:53.210Z,1.40
2023-02-19T04:30:19.710Z,2.70
2023-02-19T04:32:46.203Z,1.70
2023-02-19T04:35:12.706Z,2.10
2023-02-19T04:37:39.233Z,1.00
2023-02-19T04:40:06.097Z,2.20
2023-02-19T04:42:32.666Z,2.50
2023-02-19T04:44:59.223Z,1.80
2023-02-19T04:47:25.708Z,1.80
2023-02-19T04:49:52.187Z,1.70
2023-02-19T04:52:18.655Z,1.30
2023-02-19T04:54:45.144Z,2.40
2023-02-19T04:57:11.713Z,1.80
2023-02-19T04:59:38.206Z,1.80
2023-02-19T05:02:04.702Z,3.90
2023-02-19T05:04:31.339Z,1.50
2023-02-19T05:06:57.880Z,1.10
2023-02-19T05:09:24.417Z,2.80
2023-02-19T05:11:50.901Z,2.80
2023-02-19T05:14:17.396Z,2.50
2023-02-19T05:16:43.885Z,2.50
2023-02-19T05:19:13.608Z,3.80
2023-02-19T05:21:40.164Z,3.90
2023-02-19T05:24:07.198Z,3.60
2023-02-19T05:26:34.116Z,4.50
2023-02-19T05:29:00.905Z,3.00
2023-02-19T05:31:27.462Z,4.90
2023-02-19T05:33:56.762Z,2.80
2023-02-19T05:36:23.489Z,4.50
2023-02-19T05:38:57.437Z,4.10
2023-02-19T05:41:29.116Z,2.60
2023-02-19T05:43:56.983Z,3.70
2023-02-19T05:46:27.300Z,2.80
2023-02-19T05:48:54.370Z,2.90
2023-02-19T05:51:23.740Z,3.50
2023-02-19T05:53:50.699Z,4.20
2023-02-19T05:56:23.070Z,3.70
2023-02-19T05:58:49.885Z,4.80
2023-02-19T06:01:17.894Z,7.40
2023-02-19T06:03:44.422Z,5.20
2023-02-19T06:06:14.390Z,6.90
2023-02-19T06:08:40.943Z,4.90
2023-02-19T06:11:07.495Z,5.20
2023-02-19T06:13:34.071Z,5.60
2023-02-19T06:16:04.306Z,5.40
2023-02-19T06:18:30.904Z,5.60
2023-02-19T06:21:02.293Z,7.50
2023-02-19T06:23:29.560Z,6.50
2023-02-19T06:26:05.566Z,9.10
2023-02-19T06:28:32.043Z,8.20
2023-02-19T06:30:59.209Z,7.60
2023-02-19T06:33:26.986Z,9.70
2023-02-19T06:35:53.991Z,8.80
2023-02-19T06:38:23.695Z,8.60
2023-02-19T06:40:50.177Z,9.40
2023-02-19T06:43:16.740Z,10.40
2023-02-19T06:45:43.335Z,11.90
2023-02-19T06:48:09.810Z,12.60
2023-02-19T06:50:36.297Z,12.80
2023-02-19T06:53:02.842Z,13.80
2023-02-19T06:55:29.311Z,18.70
2023-02-19T06:57:55.786Z,18.30
2023-02-19T07:00:22.394Z,18.20
2023-02-19T07:02:48.870Z,20.20
2023-02-19T07:05:15.402Z,21.70
2023-02-19T07:07:41.859Z,21.70
2023-02-19T07:10:08.371Z,18.80
2023-02-19T07:12:34.822Z,21.90
2023-02-19T07:15:01.291Z,19.10
2023-02-19T07:17:27.774Z,17.30
2023-02-19T07:19:54.302Z,22.60
2023-02-19T07:22:21.078Z,21.50
2023-02-19T07:24:48.041Z,19.00
2023-02-19T07:27:14.571Z,22.10
2023-02-19T07:29:41.044Z,19.60
2023-02-19T07:32:07.615Z,21.10
2023-02-19T07:34:34.200Z,22.00
2023-02-19T07:37:00.699Z,22.90
2023-02-19T07:39:27.252Z,23.80
2023-02-19T07:41:53.753Z,21.10
2023-02-19T07:44:20.216Z,21.50
2023-02-19T07:46:46.699Z,24.20
2023-02-19T07:49:13.183Z,25.00
2023-02-19T07:51:39.658Z,23.20
2023-02-19T07:54:06.145Z,22.10
2023-02-19T07:56:32.623Z,22.30
2023-02-19T07:59:00.321Z,21.20
2023-02-19T08:01:26.856Z,22.40
2023-02-19T08:03:53.401Z,24.60
2023-02-19T08:06:19.867Z,20.00
2023-02-19T08:08:46.318Z,19.90
2023-02-19T08:11:12.935Z,20.40
2023-02-19T08:13:39.554Z,21.20
2023-02-19T08:16:20.053Z,19.40
2023-02-19T08:18:50.952Z,19.70
2023-02-19T08:21:17.458Z,18.50
2023-02-19T08:23:44.320Z,19.30
2023-02-19T08:26:10.930Z,17.50
2023-02-19T08:28:37.396Z,18.30
2023-02-19T08:31:06.961Z,19.70
2023-02-19T08:33:33.513Z,20.60
2023-02-19T08:36:08.259Z,18.10
2023-02-19T08:38:36.419Z,17.70
2023-02-19T08:41:08.530Z,18.20
2023-02-19T08:43:35.444Z,15.60
2023-02-19T08:46:02.657Z,17.90
2023-02-19T08:48:29.240Z,21.90
2023-02-19T08:51:05.184Z,22.90
2023-02-19T08:53:32.728Z,16.30
2023-02-19T08:55:59.303Z,15.40
2023-02-19T08:58:25.799Z,18.20
2023-02-19T09:00:52.783Z,17.50
2023-02-19T09:03:19.372Z,18.40
2023-02-19T09:05:45.974Z,19.60
2023-02-19T09:08:12.529Z,19.70
2023-02-19T09:10:39.668Z,20.20
2023-02-19T09:13:06.185Z,19.00
2023-02-19T09:15:32.779Z,17.80
2023-02-19T09:18:02.873Z,20.00
2023-02-19T09:20:30.248Z,18.10
2023-02-19T09:22:58.009Z,18.70
2023-02-19T09:25:25.148Z,20.10
2023-02-19T09:27:55.099Z,18.70
2023-02-19T09:30:21.588Z,19.10
2023-02-19T09:32:48.101Z,19.30
2023-02-19T09:35:14.686Z,18.60
2023-02-19T09:37:41.189Z,21.80
2023-02-19T09:40:09.020Z,22.60
2023-02-19T09:42:35.599Z,21.40
2023-02-19T09:45:04.853Z,19.90
2023-02-19T09:47:33.663Z,21.30
2023-02-19T09:50:08.904Z,22.70
2023-02-19T09:52:58.441Z,21.60
2023-02-19T09:55:34.659Z,25.90
2023-02-19T09:58:08.393Z,29.30
2023-02-19T10:00:36.912Z,26.10
2023-02-19T10:03:31.287Z,25.40
2023-02-19T10:06:01.009Z,22.90
2023-02-19T10:08:27.674Z,25.70
2023-02-19T10:10:54.645Z,24.10
2023-02-19T10:13:24.130Z,29.60
2023-02-19T10:15:54.161Z,83.70
2023-02-19T10:18:23.877Z,62.80
2023-02-19T10:20:52.483Z,29.50
2023-02-19T10:23:19.466Z,19.90
2023-02-19T10:25:57.818Z,18.20
2023-02-19T10:28:28.774Z,18.60
2023-02-19T10:30:58.918Z,13.80
2023-02-19T10:33:26.255Z,14.50
2023-02-19T10:36:02.352Z,12.80
2023-02-19T10:38:38.659Z,11.90
2023-02-19T10:41:15.343Z,11.40
2023-02-19T10:43:51.160Z,12.00
2023-02-19T10:46:31.362Z,13.70
2023-02-19T10:49:04.653Z,11.60
2023-02-19T10:51:35.415Z,14.40
2023-02-19T10:54:04.806Z,11.90
2023-02-19T10:56:31.305Z,11.70
2023-02-19T10:59:26.515Z,11.50
2023-02-19T11:01:58.746Z,9.90
2023-02-19T11:04:27.952Z,11.10
2023-02-19T11:06:54.767Z,10.20
2023-02-19T11:09:26.616Z,9.50
2023-02-19T11:11:54.412Z,8.60
2023-02-19T11:14:24.193Z,10.60
2023-02-19T11:16:54.527Z,9.90
2023-02-19T11:19:29.115Z,16.90
2023-02-19T11:21:57.057Z,8.70
2023-02-19T11:24:32.261Z,7.90
2023-02-19T11:26:58.956Z,6.10
2023-02-19T11:29:25.534Z,3.90
2023-02-19T11:31:52.089Z,6.20
2023-02-19T11:34:18.508Z,4.60
2023-02-19T11:36:44.985Z,4.90
2023-02-19T11:39:17.576Z,4.90
2023-02-19T11:41:56.238Z,4.50
2023-02-19T11:44:47.472Z,5.10
2023-02-19T11:47:56.977Z,4.90
2023-02-19T11:50:41.958Z,5.20
2023-02-19T11:53:14.426Z,5.40
2023-02-19T11:55:46.535Z,5.60
2023-02-19T11:58:34.781Z,5.40
2023-02-19T12:01:10.457Z,4.90
2023-02-19T12:03:59.022Z,4.60
2023-02-19T12:06:52.868Z,5.90
2023-02-19T12:09:45.090Z,5.80
2023-02-19T12:12:14.711Z,4.70
2023-02-19T12:14:43.894Z,6.50
2023-02-19T12:17:41.676Z,6.00
2023-02-19T12:20:20.296Z,5.70
2023-02-19T12:23:23.412Z,5.70
2023-02-19T12:25:52.571Z,5.90
2023-02-19T12:28:25.138Z,6.10
2023-02-19T12:31:33.518Z,5.60
2023-02-19T12:34:37.381Z,5.30
2023-02-19T12:37:22.731Z,4.80
2023-02-19T12:40:26.654Z,5.80
2023-02-19T12:43:02.027Z,5.70
2023-02-19T12:45:40.898Z,5.40
2023-02-19T12:48:27.575Z,6.20
2023-02-19T12:51:02.686Z,4.00
2023-02-19T12:53:31.876Z,5.30
2023-02-19T12:56:01.186Z,4.90
2023-02-19T12:58:39.588Z,4.80
2023-02-19T13:01:11.213Z,4.60
2023-02-19T13:03:50.164Z,2.70
2023-02-19T13:06:36.341Z,3.40
2023-02-19T13:09:07.766Z,4.50
2023-02-19T13:11:41.953Z,3.00
2023-02-19T13:14:43.384Z,1.90
2023-02-19T13:17:41.445Z,2.00
2023-02-19T13:20:19.929Z,2.20
2023-02-19T13:22:59.946Z,2.60
2023-02-19T13:25:48.351Z,4.60
2023-02-19T13:28:31.934Z,4.80
2023-02-19T13:31:17.273Z,5.10
2023-02-19T13:34:26.365Z,4.70
2023-02-19T13:36:54.421Z,3.90
2023-02-19T13:39:22.509Z,7.80
2023-02-19T13:41:51.796Z,9.40
2023-02-19T13:44:21.769Z,7.90
2023-02-19T13:46:50.227Z,4.20
2023-02-19T13:49:22.803Z,6.90
2023-02-19T13:52:01.895Z,9.10
2023-02-19T13:54:30.554Z,8.10
2023-02-19T13:57:29.218Z,7.00
2023-02-19T13:59:57.652Z,5.10
2023-02-19T14:02:33.640Z,5.30
2023-02-19T14:05:10.175Z,4.90
2023-02-19T14:07:52.895Z,3.40
2023-02-19T14:10:50.722Z,1.50
2023-02-19T14:13:51.626Z,1.80
2023-02-19T14:16:36.337Z,2.50
2023-02-19T14:19:02.850Z,2.00
2023-02-19T14:21:38.741Z,2.40
2023-02-19T14:24:10.123Z,2.00
2023-02-19T14:26:36.846Z,3.60
2023-02-19T14:29:08.000Z,3.10
2023-02-19T14:31:38.291Z,3.50
2023-02-19T14:34:06.189Z,2.70
2023-02-19T14:36:42.276Z,4.00
2023-02-19T14:39:31.614Z,4.90
2023-02-19T14:42:05.582Z,3.50
2023-02-19T14:44:46.138Z,3.20
2023-02-19T14:47:19.144Z,2.40
2023-02-19T14:49:53.926Z,0.60
2023-02-19T14:52:45.774Z,1.00
2023-02-19T14:57:41.601Z,2.80
2023-02-19T15:00:29.668Z,2.20
2023-02-19T15:02:57.551Z,0.60
2023-02-19T15:05:25.384Z,3.20
2023-02-19T15:07:54.870Z,3.00
2023-02-19T15:10:21.895Z,1.30
2023-02-19T15:12:58.873Z,1.70
2023-02-19T15:15:28.846Z,3.50
2023-02-19T15:17:57.572Z,2.40
2023-02-19T15:20:29.122Z,1.00
2023-02-19T15:25:27.058Z,2.40
2023-02-19T15:27:53.649Z,3.00
2023-02-19T15:30:25.919Z,1.10
2023-02-19T15:32:58.300Z,1.50
2023-02-19T15:35:27.631Z,3.00
2023-02-19T15:37:54.929Z,1.80
2023-02-19T15:40:29.280Z,3.60
2023-02-19T15:42:56.486Z,4.20
2023-02-19T15:45:40.656Z,2.70
2023-02-19T15:48:12.728Z,1.70
2023-02-19T15:50:45.879Z,3.00
2023-02-19T15:53:28.736Z,1.80
2023-02-19T15:56:04.010Z,1.00
2023-02-19T15:58:41.690Z,1.00
2023-02-19T16:01:23.286Z,1.30
2023-02-19T16:03:49.814Z,1.50
2023-02-19T16:06:17.935Z,1.40
2023-02-19T16:09:05.314Z,1.40
2023-02-19T16:11:52.824Z,3.10
2023-02-19T16:14:38.687Z,1.20
2023-02-19T16:17:11.133Z,1.80
2023-02-19T16:19:52.555Z,2.70
2023-02-19T16:22:22.474Z,0.80
2023-02-19T16:24:53.369Z,3.20
2023-02-19T16:27:33.061Z,0.70
2023-02-19T16:30:06.443Z,1.60
2023-02-19T16:32:33.006Z,1.80
2023-02-19T16:34:59.600Z,2.60
2023-02-19T16:37:36.607Z,2.60
2023-02-19T16:40:08.923Z,2.80
2023-02-19T16:43:24.473Z,3.00
2023-02-19T16:45:51.089Z,1.80
2023-02-19T16:48:20.997Z,3.50
2023-02-19T16:50:47.462Z,3.30
2023-02-19T16:53:20.071Z,3.60
2023-02-19T16:55:47.393Z,3.20
2023-02-19T16:58:14.013Z,3.10
2023-02-19T17:00:40.553Z,1.20
2023-02-19T17:03:10.652Z,2.40
2023-02-19T17:05:37.978Z,1.30
2023-02-19T17:08:19.897Z,1.30
2023-02-19T17:10:46.521Z,2.00
2023-02-19T17:13:12.954Z,1.60
2023-02-19T17:15:39.437Z,2.20
2023-02-19T17:18:05.918Z,1.40
2023-02-19T17:20:34.467Z,1.80
2023-02-19T17:23:00.948Z,1.00
2023-02-19T17:25:27.964Z,2.70
2023-02-19T17:27:54.488Z,1.10
2023-02-19T17:30:27.602Z,2.30
2023-02-19T17:32:54.168Z,3.40
2023-02-19T17:35:21.548Z,1.60
2023-02-19T17:37:48.057Z,1.60
2023-02-19T17:40:33.419Z,1.80
2023-02-19T17:43:01.405Z,0.90
2023-02-19T17:45:28.386Z,1.40
2023-02-19T17:47:54.893Z,3.90
2023-02-19T17:50:23.629Z,2.80
2023-02-19T17:52:50.399Z,2.20
2023-02-19T17:55:18.154Z,1.70
2023-02-19T17:57:49.517Z,2.30
2023-02-19T18:00:18.705Z,1.00
2023-02-19T18:02:45.276Z,1.80
2023-02-19T18:05:12.106Z,2.70
2023-02-19T18:07:38.846Z,1.00
2023-02-19T18:10:06.786Z,2.80
2023-02-19T18:12:33.360Z,1.80
2023-02-19T18:14:59.958Z,1.60
2023-02-19T18:17:26.703Z,3.50
2023-02-19T18:19:53.942Z,2.60
2023-02-19T18:22:20.515Z,2.60
2023-02-19T18:24:48.480Z,1.80
2023-02-19T18:27:16.106Z,3.30
2023-02-19T18:29:42.637Z,2.80
2023-02-19T18:32:09.309Z,3.50
2023-02-19T18:34:35.893Z,1.90
2023-02-19T18:37:02.417Z,2.90
2023-02-19T18:39:32.565Z,2.50
2023-02-19T18:41:59.086Z,1.50
2023-02-19T18:44:25.544Z,3.20
2023-02-19T18:46:52.797Z,2.70
2023-02-19T18:49:19.894Z,2.50
2023-02-19T18:51:46.990Z,2.90
2023-02-19T18:54:13.722Z,2.00
2023-02-19T18:56:41.716Z,2.00
2023-02-19T18:59:08.210Z,1.60
2023-02-19T19:01:34.863Z,1.60
2023-02-19T19:04:01.477Z,2.40
2023-02-19T19:06:31.015Z,3.00
2023-02-19T19:08:57.598Z,2.90
2023-02-19T19:11:25.394Z,3.00
2023-02-19T19:13:52.097Z,4.50
2023-02-19T19:16:18.652Z,2.80
2023-02-19T19:18:47.302Z,3.60
2023-02-19T19:21:14.692Z,3.00
2023-02-19T19:23:41.219Z,2.60
2023-02-19T19:26:07.875Z,2.80
2023-02-19T19:28:34.386Z,2.30
2023-02-19T19:31:01.077Z,2.80
2023-02-19T19:33:28.100Z,3.30
2023-02-19T19:35:54.744Z,4.70
2023-02-19T19:38:21.248Z,2.80
2023-02-19T19:40:47.784Z,3.40
2023-02-19T19:43:14.312Z,3.30
2023-02-19T19:45:40.813Z,3.10
2023-02-19T19:48:07.457Z,3.50
2023-02-19T19:50:33.923Z,3.70
2023-02-19T19:53:00.404Z,1.90
2023-02-19T19:55:26.899Z,3.20
2023-02-19T19:57:53.408Z,3.90
2023-02-19T20:00:20.704Z,3.10
2023-02-19T20:02:47.262Z,4.10
2023-02-19T20:05:14.898Z,3.40
2023-02-19T20:07:41.476Z,5.30
2023-02-19T20:10:08.661Z,4.60
2023-02-19T20:12:35.129Z,4.80
2023-02-19T20:15:01.641Z,2.90
2023-02-19T20:17:28.291Z,3.50
2023-02-19T20:19:54.921Z,3.30
2023-02-19T20:22:21.523Z,5.30
2023-02-19T20:24:52.202Z,4.70
2023-02-19T20:27:20.915Z,5.10
2023-02-19T20:29:47.637Z,6.30
2023-02-19T20:32:15.832Z,5.20
2023-02-19T20:34:42.323Z,4.40
2023-02-19T20:37:08.865Z,4.60
2023-02-19T20:39:35.871Z,3.30
2023-02-19T20:42:02.422Z,5.40
2023-02-19T20:44:29.251Z,5.00
2023-02-19T20:46:57.428Z,4.80
2023-02-19T20:49:26.675Z,2.70
2023-02-19T20:51:56.651Z,4.60
2023-02-19T20:54:26.367Z,3.70
2023-02-19T20:56:54.988Z,4.00
2023-02-19T20:59:25.347Z,3.30
2023-02-19T21:01:51.900Z,3.80
2023-02-19T21:04:19.208Z,4.20
2023-02-19T21:06:46.021Z,4.60
2023-02-19T21:09:12.892Z,4.90
2023-02-19T21:11:39.364Z,3.80
2023-02-19T21:14:05.849Z,4.90
2023-02-19T21:16:32.543Z,2.90
2023-02-19T21:18:59.652Z,3.50
2023-02-19T21:21:26.436Z,4.30
2023-02-19T21:23:57.679Z,4.70
2023-02-19T21:26:24.732Z,3.00
2023-02-19T21:28:51.785Z,4.50
2023-02-19T21:31:19.139Z,3.70
2023-02-19T21:33:46.081Z,3.30
2023-02-19T21:36:13.887Z,3.70
2023-02-19T21:38:40.523Z,5.40
2023-02-19T21:41:06.996Z,3.20
2023-02-19T21:43:33.487Z,5.50
2023-02-19T21:46:00.049Z,4.70
2023-02-19T21:48:26.649Z,5.10
2023-02-19T21:50:53.134Z,4.70
2023-02-19T21:53:19.594Z,3.90
2023-02-19T21:55:56.630Z,3.80
2023-02-19T21:58:25.444Z,4.40
2023-02-19T22:00:51.953Z,5.00
2023-02-19T22:03:18.458Z,4.30
2023-02-19T22:05:44.979Z,5.50
2023-02-19T22:08:11.509Z,4.80
2023-02-19T22:10:38.044Z,3.60
2023-02-19T22:13:04.529Z,5.00
2023-02-19T22:15:31.018Z,3.90
2023-02-19T22:17:57.490Z,4.20
2023-02-19T22:20:23.935Z,3.70
2023-02-19T22:22:50.406Z,4.40
2023-02-19T22:25:16.955Z,4.50
2023-02-19T22:27:43.493Z,5.90
2023-02-19T22:30:10.810Z,4.00
2023-02-19T22:32:37.452Z,4.20
2023-02-19T22:35:04.062Z,4.40
2023-02-19T22:37:30.542Z,5.90
2023-02-19T22:39:57.014Z,5.20
2023-02-19T22:42:23.528Z,5.20
2023-02-19T22:44:50.014Z,5.10
2023-02-19T22:47:18.858Z,6.10
2023-02-19T22:49:45.384Z,4.90
2023-02-19T22:52:12.598Z,3.90
2023-02-19T22:54:39.235Z,4.30
2023-02-19T22:57:05.936Z,4.00
2023-02-19T22:59:32.430Z,3.70
2023-02-19T23:01:58.903Z,4.40
2023-02-19T23:04:25.759Z,3.90
2023-02-19T23:06:52.431Z,4.10
2023-02-19T23:09:22.506Z,4.20
2023-02-19T23:11:49.016Z,3.10
2023-02-19T23:14:17.652Z,4.60
2023-02-19T23:16:44.280Z,2.40
2023-02-19T23:19:14.565Z,3.90
2023-02-19T23:21:43.913Z,5.40
2023-02-19T23:24:11.851Z,2.60
2023-02-19T23:26:43.240Z,3.90
2023-02-19T23:29:09.690Z,2.90
2023-02-19T23:31:36.301Z,3.60
2023-02-19T23:34:03.150Z,3.50
2023-02-19T23:36:29.613Z,3.00
2023-02-19T23:38:56.092Z,3.70
2023-02-19T23:41:22.567Z,4.40
2023-02-19T23:43:49.092Z,5.00
2023-02-19T23:46:17.879Z,5.50
2023-02-19T23:48:45.060Z,2.70
2023-02-19T23:51:13.023Z,5.60
2023-02-19T23:53:39.582Z,3.10
2023-02-19T23:56:06.589Z,4.20
2023-02-19T23:58:33.094Z,5.50
